Change the Weather History Date:

Saturday, November 16, 2013

  Actual Average Record
Temperature  
Mean Temperature 61 °F -  
Max Temperature 71 °F 57 °F 78 °F (1963)
Min Temperature 51 °F 32 °F 6 °F (1955)
Degree Days  
Heating Degree Days 4    
Growing Degree Days 11 (Base 50)    
Moisture  
Dew Point 40 °F    
Average Humidity 52    
Maximum Humidity 67    
Minimum Humidity 33    
Precipitation  
Precipitation 0.00 in - - ()
Sea Level Pressure  
Sea Level Pressure 29.41 in    
Wind  
Wind Speed 17 mph (SSW)    
Max Wind Speed 26 mph    
Max Gust Speed 33 mph    
Visibility 10 miles    
Events      
Averages and records for this station are not official NWS values.
T = Trace of Precipitation, MM = Missing Value Source: NWS Daily Summary

Daily Weather History Graph

Daily Weather History Graph

Search for Another Location

Airport or City:

Trip Planner

Search our weather history database for the weather conditions in past years. The results will help you decide how hot, cold, wet, or windy it might be!

Date:

Astronomy

Nov. 16, 2013 Rise Set
Actual Time 7:18 AM CST 5:21 PM CST
Civil Twilight 6:49 AM CST 5:50 PM CST
Nautical Twilight 6:17 AM CST 6:22 PM CST
Astronomical Twilight 5:46 AM CST 6:53 PM CST
Moon 4:57 PM CST (11/16) 6:16 AM CST (11/16)
Length of Visible Light 11h 00m
Length of Day
10h 03m
Waxing Gibbous, 99% of the Moon is Illuminated
Nov 16
Waxing Gibbous
Nov 17
Full
Nov 25
Last Quarter
Dec 2
New
Dec 9
First Quarter

Hourly Weather History & Observations

Time (CST) Temp. Dew Point Humidity Pressure Visibility Wind Dir Wind Speed Gust Speed Precip Events Conditions
12:15 AM 51.8 °F 39.2 °F 62% 29.53 in 10.0 mi South 23.0 mph 32.2 mph N/A   Clear
12:35 AM 51.8 °F 39.2 °F 62% 29.52 in 10.0 mi South 23.0 mph 28.8 mph N/A   Clear
12:55 AM 51.8 °F 39.2 °F 62% 29.52 in 10.0 mi South 25.3 mph 33.4 mph N/A   Clear
1:15 AM 51.8 °F 39.2 °F 62% 29.51 in 10.0 mi South 26.5 mph 31.1 mph N/A   Clear
1:35 AM 51.8 °F 39.2 °F 62% 29.50 in 10.0 mi South 21.9 mph 27.6 mph N/A   Clear
1:55 AM 51.8 °F 39.2 °F 62% 29.49 in 10.0 mi South 20.7 mph 25.3 mph N/A   Clear
2:15 AM 51.8 °F 39.2 °F 62% 29.48 in 10.0 mi South 18.4 mph 25.3 mph N/A   Clear
2:35 AM 51.8 °F 39.2 °F 62% 29.47 in 10.0 mi South 21.9 mph - N/A   Clear
2:55 AM 51.8 °F 39.2 °F 62% 29.47 in 10.0 mi South 21.9 mph - N/A   Clear
3:15 AM 51.8 °F 39.2 °F 62% 29.46 in 10.0 mi South 21.9 mph 27.6 mph N/A   Clear
3:35 AM 51.8 °F 39.2 °F 62% 29.46 in 10.0 mi South 18.4 mph - N/A   Clear
3:55 AM 51.8 °F 39.2 °F 62% 29.45 in 10.0 mi South 18.4 mph 23.0 mph N/A   Clear
4:15 AM 51.8 °F 39.2 °F 62% 29.45 in 10.0 mi South 21.9 mph 27.6 mph N/A   Clear
4:35 AM 51.8 °F 39.2 °F 62% 29.44 in 10.0 mi South 19.6 mph 25.3 mph N/A   Clear
4:55 AM 51.8 °F 39.2 °F 62% 29.44 in 10.0 mi South 17.3 mph - N/A   Clear
5:15 AM 51.8 °F 41.0 °F 67% 29.43 in 10.0 mi South 17.3 mph - N/A   Clear
5:35 AM 51.8 °F 41.0 °F 67% 29.43 in 10.0 mi SSW 13.8 mph - N/A   Clear
5:55 AM 53.6 °F 41.0 °F 62% 29.42 in 10.0 mi SSW 16.1 mph - N/A   Clear
6:15 AM 53.6 °F 41.0 °F 62% 29.42 in 10.0 mi SSW 13.8 mph 20.7 mph N/A   Clear
6:35 AM 55.4 °F 41.0 °F 58% 29.42 in 10.0 mi SSW 17.3 mph 23.0 mph N/A   Clear
6:55 AM 55.4 °F 41.0 °F 58% 29.41 in 10.0 mi SSW 18.4 mph - N/A   Clear
7:15 AM 55.4 °F 41.0 °F 58% 29.42 in 10.0 mi SSW 18.4 mph 25.3 mph N/A   Clear
7:35 AM 55.4 °F 42.8 °F 63% 29.42 in 10.0 mi SSW 17.3 mph 21.9 mph N/A   Mostly Cloudy
7:55 AM 57.2 °F 42.8 °F 59% 29.43 in 10.0 mi SSW 16.1 mph 23.0 mph N/A   Mostly Cloudy
8:15 AM 57.2 °F 42.8 °F 59% 29.44 in 10.0 mi SSW 16.1 mph 21.9 mph N/A   Partly Cloudy
8:35 AM 57.2 °F 42.8 °F 59% 29.45 in 10.0 mi SW 13.8 mph 24.2 mph N/A   Clear
8:55 AM 59.0 °F 42.8 °F 55% 29.46 in 10.0 mi SW 15.0 mph - N/A   Clear
9:15 AM 60.8 °F 42.8 °F 52% 29.46 in 10.0 mi SW 19.6 mph 25.3 mph N/A   Clear
9:35 AM 60.8 °F 44.6 °F 55% 29.45 in 10.0 mi SW 17.3 mph 24.2 mph N/A   Clear
9:55 AM 62.6 °F 42.8 °F 48% 29.46 in 10.0 mi WSW 25.3 mph 29.9 mph N/A   Clear
10:15 AM 62.6 °F 42.8 °F 48% 29.47 in 10.0 mi WSW 20.7 mph 27.6 mph N/A   Clear
10:35 AM 64.4 °F 44.6 °F 49% 29.46 in 10.0 mi SW 18.4 mph 25.3 mph N/A   Clear
10:55 AM 64.4 °F 42.8 °F 45% 29.46 in 10.0 mi SW 16.1 mph 23.0 mph N/A   Clear
11:15 AM 66.2 °F 44.6 °F 46% 29.46 in 10.0 mi WSW 17.3 mph 25.3 mph N/A   Clear
11:35 AM 66.2 °F 42.8 °F 43% 29.46 in 10.0 mi WSW 17.3 mph 24.2 mph N/A   Clear
11:55 AM 66.2 °F 42.8 °F 43% 29.45 in 10.0 mi WSW 17.3 mph 23.0 mph N/A   Clear
12:15 PM 68.0 °F 42.8 °F 40% 29.44 in 10.0 mi West 15.0 mph 18.4 mph N/A   Clear
12:35 PM 68.0 °F 42.8 °F 40% 29.42 in 10.0 mi SW 10.4 mph - N/A   Clear
12:55 PM 69.8 °F 42.8 °F 38% 29.42 in 10.0 mi WSW 13.8 mph - N/A   Clear
1:15 PM 69.8 °F 42.8 °F 38% 29.41 in 10.0 mi WSW 13.8 mph - N/A   Clear
1:35 PM 69.8 °F 42.8 °F 38% 29.40 in 10.0 mi West 16.1 mph 21.9 mph N/A   Clear
1:55 PM 69.8 °F 42.8 °F 38% 29.39 in 10.0 mi West 9.2 mph - N/A   Clear
2:15 PM 69.8 °F 42.8 °F 38% 29.38 in 10.0 mi West 10.4 mph - N/A   Clear
2:35 PM 69.8 °F 42.8 °F 38% 29.37 in 10.0 mi NW 6.9 mph - N/A   Clear
2:55 PM 71.6 °F 41.0 °F 33% 29.37 in 10.0 mi West 8.1 mph - N/A   Clear
3:15 PM 69.8 °F 42.8 °F 38% 29.36 in 10.0 mi West 5.8 mph - N/A   Clear
3:35 PM 71.6 °F 41.0 °F 33% 29.36 in 10.0 mi NW 6.9 mph - N/A   Clear
3:55 PM 69.8 °F 41.0 °F 35% 29.37 in 10.0 mi NNW 3.5 mph - N/A   Scattered Clouds
4:15 PM 69.8 °F 41.0 °F 35% 29.37 in 10.0 mi Calm Calm - N/A   Mostly Cloudy
4:35 PM 66.2 °F 41.0 °F 40% 29.36 in 10.0 mi NNE 4.6 mph - N/A   Mostly Cloudy
4:55 PM 66.2 °F 42.8 °F 43% 29.36 in 10.0 mi ENE 4.6 mph - N/A   Partly Cloudy
5:15 PM 64.4 °F 42.8 °F 45% 29.36 in 10.0 mi ENE 5.8 mph - N/A   Clear
5:35 PM 60.8 °F 42.8 °F 52% 29.37 in 10.0 mi ENE 4.6 mph - N/A   Scattered Clouds
5:55 PM 60.8 °F 41.0 °F 48% 29.37 in 10.0 mi ESE 8.1 mph - N/A   Mostly Cloudy
6:15 PM 59.0 °F 41.0 °F 51% 29.37 in 10.0 mi ESE 6.9 mph - N/A   Scattered Clouds
6:35 PM 57.2 °F 39.2 °F 51% 29.38 in 10.0 mi ESE 4.6 mph - N/A   Clear
6:55 PM 55.4 °F 39.2 °F 54% 29.38 in 10.0 mi East 5.8 mph - N/A   Clear
7:15 PM 55.4 °F 41.0 °F 58% 29.37 in 10.0 mi Calm Calm - N/A   Scattered Clouds
7:35 PM 55.4 °F 39.2 °F 54% 29.37 in 10.0 mi ESE 4.6 mph - N/A   Partly Cloudy
7:55 PM 55.4 °F 39.2 °F 54% 29.36 in 10.0 mi East 4.6 mph - N/A   Clear
8:15 PM 55.4 °F 39.2 °F 54% 29.36 in 9.0 mi ESE 4.6 mph - N/A   Clear
8:35 PM 53.6 °F 39.2 °F 58% 29.35 in 10.0 mi ESE 5.8 mph - N/A   Clear
8:55 PM 53.6 °F 37.4 °F 54% 29.34 in 10.0 mi SE 5.8 mph - N/A   Clear
9:15 PM 53.6 °F 35.6 °F 51% 29.34 in 10.0 mi South 8.1 mph - N/A   Clear
9:35 PM 53.6 °F 33.8 °F 47% 29.34 in 10.0 mi SSW 6.9 mph - N/A   Clear
9:55 PM 55.4 °F 33.8 °F 44% 29.34 in 10.0 mi South 9.2 mph - N/A   Clear
10:15 PM 53.6 °F 33.8 °F 47% 29.34 in 10.0 mi SW 8.1 mph - N/A   Clear
10:35 PM 53.6 °F 33.8 °F 47% 29.33 in 10.0 mi SSW 10.4 mph - N/A   Clear
10:55 PM 55.4 °F 33.8 °F 44% 29.33 in 10.0 mi WSW 10.4 mph - N/A   Clear
11:15 PM 53.6 °F 35.6 °F 51% 29.34 in 10.0 mi WSW 13.8 mph - N/A   Clear
11:35 PM 55.4 °F 35.6 °F 47% 29.34 in 10.0 mi SW 15.0 mph - N/A   Clear
11:55 PM 53.6 °F 33.8 °F 47% 29.35 in 10.0 mi SW 15.0 mph - N/A   Clear